Mulgrave, Canada
Current Conditions -  °F | °C
As of 10:25 PM on Saturday 22 Nov 2014 (Local Time) from CYPD Reporting Station
Light Rain Light Rain  
Wind Chill: 22°   Ceiling: 6000
Heat Index: 34°   Visibility: 9mi
Dew Point: 27°   Wind: 20mph
Humidity: 75%   Direction: 250°WSW
Pressure: 29.84"   Gusts: 28mph
Location:  45.62°N, 61.4°W
Report Text: CYPD 230225Z AUTO 25017G24KT 9SM -RA FEW037 OVC060 01/M03 A2984 RMK SLP111
Loading
Personal Weather Stations






























Interactive Weather Map New forecast layout! Learn more

10-Day Weather Forecast

Advertisements
Track Severe Weather on mobile